createdAt,value
2022-11-30T04:36:20.062Z,101132.00
2022-11-30T04:39:23.165Z,101132.00
2022-11-30T04:42:25.464Z,101134.12
2022-11-30T04:45:32.486Z,101126.34
2022-11-30T04:48:37.846Z,101128.97
2022-11-30T04:51:40.484Z,101134.06
2022-11-30T04:54:42.761Z,101135.72
2022-11-30T04:57:48.087Z,101124.41
2022-11-30T05:00:53.402Z,101121.09
2022-11-30T05:03:59.783Z,101119.28
2022-11-30T05:07:03.394Z,101127.94
2022-11-30T05:10:07.711Z,101119.22
2022-11-30T05:13:10.299Z,101129.59
2022-11-30T05:16:13.129Z,101126.19
2022-11-30T05:19:16.247Z,101137.44
2022-11-30T05:22:18.997Z,101137.38
2022-11-30T05:25:21.432Z,101134.81
2022-11-30T05:28:24.402Z,101138.25
2022-11-30T05:31:26.947Z,101139.13
2022-11-30T05:34:29.641Z,101141.66
2022-11-30T05:37:32.065Z,101139.06
2022-11-30T05:40:35.258Z,101144.12
2022-11-30T05:43:37.769Z,101138.94
2022-11-30T05:46:41.212Z,101147.44
2022-11-30T05:49:43.964Z,101141.44
2022-11-30T05:52:46.449Z,101147.44
2022-11-30T05:55:48.773Z,101139.78
2022-11-30T05:58:51.436Z,101138.91
2022-11-30T06:01:54.772Z,101143.16
2022-11-30T06:04:57.589Z,101145.72
2022-11-30T06:08:00.925Z,101140.38
2022-11-30T06:11:04.293Z,101140.38
2022-11-30T06:14:06.868Z,101146.44
2022-11-30T06:17:09.547Z,101151.63
2022-11-30T06:20:12.369Z,101154.34
2022-11-30T06:23:14.965Z,101152.41
2022-11-30T06:26:17.357Z,101159.31
2022-11-30T06:29:20.609Z,101168.13
2022-11-30T06:32:22.902Z,101168.91
2022-11-30T06:35:28.648Z,101167.94
2022-11-30T06:38:31.144Z,101172.37
2022-11-30T06:41:33.838Z,101178.31
2022-11-30T06:44:36.154Z,101180.81
2022-11-30T06:47:38.853Z,101187.81
2022-11-30T06:50:45.504Z,101186.88
2022-11-30T06:53:51.211Z,101182.56
2022-11-30T06:56:53.462Z,101179.97
2022-11-30T06:59:56.904Z,101183.28
2022-11-30T07:02:59.248Z,101173.66
2022-11-30T07:06:07.114Z,101175.38
2022-11-30T07:09:10.436Z,101169.28
2022-11-30T07:12:13.054Z,101175.38
2022-11-30T07:15:15.799Z,101171.78
2022-11-30T07:18:18.799Z,101176.19
2022-11-30T07:21:21.127Z,101172.66
2022-11-30T07:24:42.561Z,101171.84
2022-11-30T07:27:44.823Z,101171.06
2022-11-30T07:30:48.886Z,101175.22
2022-11-30T07:33:52.146Z,101177.84
2022-11-30T07:36:54.808Z,101183.75
2022-11-30T07:39:57.294Z,101180.25
2022-11-30T07:42:59.840Z,101167.25
2022-11-30T07:46:03.202Z,101168.81
2022-11-30T07:49:07.458Z,101163.63
2022-11-30T07:52:09.756Z,101174.75
2022-11-30T07:55:12.266Z,101171.31
2022-11-30T07:58:17.440Z,101172.16
2022-11-30T08:01:22.724Z,101171.19
2022-11-30T08:04:25.433Z,101166.72
2022-11-30T08:07:28.093Z,101172.81
2022-11-30T08:10:31.113Z,101172.81
2022-11-30T08:13:33.439Z,101178.78
2022-11-30T08:16:38.188Z,101175.13
2022-11-30T08:19:40.636Z,101173.28
2022-11-30T08:22:43.207Z,101168.03
2022-11-30T08:25:45.523Z,101167.81
2022-11-30T08:28:50.091Z,101171.22
2022-11-30T08:31:52.524Z,101168.56
2022-11-30T08:34:55.237Z,101159.00
2022-11-30T08:37:57.567Z,101159.78
2022-11-30T08:41:00.613Z,101156.22
2022-11-30T08:44:03.163Z,101153.53
2022-11-30T08:47:07.274Z,101151.84
2022-11-30T08:50:10.392Z,101148.38
2022-11-30T08:53:13.011Z,101156.25
2022-11-30T08:56:20.845Z,101158.75
2022-11-30T08:59:23.456Z,101153.69
2022-11-30T09:02:26.694Z,101148.25
2022-11-30T09:05:29.377Z,101150.81
2022-11-30T09:08:32.387Z,101155.97
2022-11-30T09:11:35.792Z,101157.72
2022-11-30T09:14:38.161Z,101156.22
2022-11-30T09:17:41.017Z,101162.13
2022-11-30T09:20:43.413Z,101157.69
2022-11-30T09:23:46.501Z,101153.06
2022-11-30T09:26:48.870Z,101161.66
2022-11-30T09:29:51.653Z,101162.56
2022-11-30T09:32:53.996Z,101157.19
2022-11-30T09:36:01.797Z,101161.50
2022-11-30T09:39:04.154Z,101160.56
2022-11-30T09:42:22.141Z,101162.25
2022-11-30T09:45:30.289Z,101163.88
2022-11-30T09:48:40.356Z,101163.75
2022-11-30T09:51:47.514Z,101161.03
2022-11-30T09:54:50.724Z,101164.12
2022-11-30T09:57:56.661Z,101150.88
2022-11-30T10:01:05.056Z,101148.19
2022-11-30T10:04:24.725Z,101150.88
2022-11-30T10:07:32.990Z,101150.88
2022-11-30T10:10:53.815Z,101145.56
2022-11-30T10:14:16.149Z,101142.84
2022-11-30T10:17:34.202Z,101137.47
2022-11-30T10:21:13.174Z,101136.44
2022-11-30T10:24:41.582Z,101132.91
2022-11-30T10:27:51.295Z,101130.97
2022-11-30T10:31:01.814Z,101124.13
2022-11-30T10:34:21.270Z,101112.63
2022-11-30T10:37:39.581Z,101116.91
2022-11-30T10:40:52.872Z,101116.34
2022-11-30T10:44:02.614Z,101118.94
2022-11-30T10:47:22.327Z,101118.34
2022-11-30T10:50:29.167Z,101111.97
2022-11-30T10:53:37.211Z,101118.47
2022-11-30T10:56:39.788Z,101123.19
2022-11-30T10:59:52.694Z,101106.78
2022-11-30T11:02:55.603Z,101101.41
2022-11-30T11:06:11.169Z,101115.37
2022-11-30T11:09:38.536Z,101108.19
2022-11-30T11:12:49.845Z,101106.38
2022-11-30T11:16:00.294Z,101103.69
2022-11-30T11:19:02.724Z,101103.44
2022-11-30T11:22:20.826Z,101104.13
2022-11-30T11:25:37.748Z,101097.00
2022-11-30T11:28:45.461Z,101100.44
2022-11-30T11:31:48.681Z,101097.75
2022-11-30T11:34:51.664Z,101102.53
2022-11-30T11:37:53.973Z,101109.28
2022-11-30T11:41:02.467Z,101102.22
2022-11-30T11:44:08.317Z,101108.97
2022-11-30T11:47:23.837Z,101106.09
2022-11-30T11:54:01.791Z,101103.19
2022-11-30T11:57:13.282Z,101114.19
2022-11-30T12:00:18.502Z,101101.47
2022-11-30T12:03:40.016Z,101110.78
2022-11-30T12:06:45.243Z,101104.59
2022-11-30T12:10:49.490Z,101095.34
2022-11-30T12:13:42.022Z,101086.69
2022-11-30T12:17:02.814Z,101086.25
2022-11-30T12:20:14.082Z,101092.50
2022-11-30T12:23:46.083Z,101094.16
2022-11-30T12:26:58.410Z,101092.53
2022-11-30T12:30:12.227Z,101099.53
2022-11-30T12:33:17.413Z,101091.69
2022-11-30T12:36:25.554Z,101087.44
2022-11-30T12:39:40.167Z,101080.94
2022-11-30T12:43:25.428Z,101080.78
2022-11-30T12:46:27.628Z,101084.72
2022-11-30T12:49:57.645Z,101080.34
2022-11-30T12:53:18.255Z,101076.53
2022-11-30T12:56:41.311Z,101079.84
2022-11-30T13:00:02.525Z,101082.13
2022-11-30T13:03:41.852Z,101072.66
2022-11-30T13:06:49.019Z,101067.84
2022-11-30T13:10:04.163Z,101066.97
2022-11-30T13:13:13.682Z,101063.78
2022-11-30T13:16:18.348Z,101074.63
2022-11-30T13:19:28.564Z,101074.66
2022-11-30T13:22:46.810Z,101071.31
2022-11-30T13:26:08.605Z,101065.78
2022-11-30T13:29:25.427Z,101065.78
2022-11-30T13:32:57.541Z,101068.72
2022-11-30T13:35:55.062Z,101075.38
2022-11-30T13:39:20.132Z,101077.03
2022-11-30T13:42:50.091Z,101078.09
2022-11-30T13:46:19.189Z,101085.41
2022-11-30T13:49:27.862Z,101081.31
2022-11-30T13:52:58.527Z,101082.88
2022-11-30T13:56:04.079Z,101081.37
2022-11-30T13:59:24.538Z,101080.84
2022-11-30T14:02:33.345Z,101084.44
2022-11-30T14:05:38.505Z,101088.75
2022-11-30T14:08:40.849Z,101081.84
2022-11-30T14:11:46.554Z,101083.72
2022-11-30T14:14:49.037Z,101090.69
2022-11-30T14:17:56.944Z,101083.25
2022-11-30T14:21:19.970Z,101084.28
2022-11-30T14:24:23.987Z,101084.16
2022-11-30T14:27:29.544Z,101085.06
2022-11-30T14:30:34.126Z,101084.28
2022-11-30T14:33:44.238Z,101080.59
2022-11-30T14:36:53.621Z,101079.78
2022-11-30T14:39:56.656Z,101085.03
2022-11-30T14:43:01.653Z,101079.12
2022-11-30T14:46:09.192Z,101074.91
2022-11-30T14:49:22.793Z,101081.06
2022-11-30T14:52:53.100Z,101077.37
2022-11-30T14:56:02.515Z,101077.63
2022-11-30T14:59:37.249Z,101073.19
2022-11-30T15:02:43.020Z,101072.62
2022-11-30T15:05:45.550Z,101068.16
2022-11-30T15:08:54.421Z,101064.78
2022-11-30T15:11:58.052Z,101072.53
2022-11-30T15:15:22.729Z,101065.47
2022-11-30T15:18:26.150Z,101066.47
2022-11-30T15:21:29.715Z,101070.78
2022-11-30T15:24:31.894Z,101069.16
2022-11-30T15:27:34.588Z,101070.06
2022-11-30T15:30:40.539Z,101075.38
2022-11-30T15:33:45.962Z,101072.53
2022-11-30T15:36:48.640Z,101069.72
2022-11-30T15:39:56.943Z,101069.03
2022-11-30T15:43:00.637Z,101073.50
2022-11-30T15:46:03.776Z,101075.97
2022-11-30T15:49:12.501Z,101070.16
2022-11-30T15:52:17.448Z,101071.84
2022-11-30T15:55:46.877Z,101076.12
2022-11-30T15:59:05.040Z,101066.63
2022-11-30T16:02:25.323Z,101061.47
2022-11-30T16:05:28.002Z,101062.03
2022-11-30T16:08:30.835Z,101067.41
2022-11-30T16:11:34.857Z,101071.03
2022-11-30T16:14:37.174Z,101070.13
2022-11-30T16:17:39.682Z,101063.06
2022-11-30T16:20:43.376Z,101062.53
2022-11-30T16:23:47.098Z,101077.22
2022-11-30T16:26:51.924Z,101066.97
2022-11-30T16:29:55.311Z,101066.12
2022-11-30T16:32:57.741Z,101063.50
2022-11-30T16:36:08.127Z,101053.91
2022-11-30T16:39:12.441Z,101053.16
2022-11-30T16:42:15.151Z,101048.06
2022-11-30T16:45:23.659Z,101044.69
2022-11-30T16:48:26.353Z,101048.84
